sensor_id;sensor_type;location;lat;lon;timestamp;pressure;altitude;pressure_sealevel;temperature;humidity
6453;BME280;3259;51.080;13.712;2023-08-07T00:00:28;99125.06;;;24.35;50.97
6453;BME280;3259;51.080;13.712;2023-08-07T00:03:17;99119.75;;;24.35;51.27
6453;BME280;3259;51.080;13.712;2023-08-07T00:06:05;99120.56;;;24.35;50.99
6453;BME280;3259;51.080;13.712;2023-08-07T00:08:54;99123.44;;;24.34;51.01
6453;BME280;3259;51.080;13.712;2023-08-07T00:11:43;99117.53;;;24.32;51.52
6453;BME280;3259;51.080;13.712;2023-08-07T00:14:32;99120.38;;;24.37;50.81
6453;BME280;3259;51.080;13.712;2023-08-07T00:17:22;99117.31;;;24.33;50.58
6453;BME280;3259;51.080;13.712;2023-08-07T00:20:11;99122.13;;;24.43;50.56
6453;BME280;3259;51.080;13.712;2023-08-07T00:22:59;99128.28;;;24.43;50.83
6453;BME280;3259;51.080;13.712;2023-08-07T00:25:48;99124.50;;;24.51;50.39
6453;BME280;3259;51.080;13.712;2023-08-07T00:28:37;99121.81;;;24.51;50.81
6453;BME280;3259;51.080;13.712;2023-08-07T00:31:25;99122.88;;;24.50;50.92
6453;BME280;3259;51.080;13.712;2023-08-07T00:34:19;99118.56;;;24.49;50.50
6453;BME280;3259;51.080;13.712;2023-08-07T00:37:08;99119.63;;;24.48;50.63
6453;BME280;3259;51.080;13.712;2023-08-07T00:39:57;99129.66;;;24.46;50.50
6453;BME280;3259;51.080;13.712;2023-08-07T00:42:46;99124.56;;;24.44;50.83
6453;BME280;3259;51.080;13.712;2023-08-07T00:45:38;99129.06;;;24.44;50.87
6453;BME280;3259;51.080;13.712;2023-08-07T00:48:29;99127.44;;;24.43;50.69
6453;BME280;3259;51.080;13.712;2023-08-07T00:51:19;99129.06;;;24.44;50.64
6453;BME280;3259;51.080;13.712;2023-08-07T00:54:10;99127.91;;;24.40;50.45
6453;BME280;3259;51.080;13.712;2023-08-07T00:57:09;99129.53;;;24.41;50.49
6453;BME280;3259;51.080;13.712;2023-08-07T00:59:59;99127.53;;;24.36;50.75
6453;BME280;3259;51.080;13.712;2023-08-07T01:02:49;99127.53;;;24.36;51.03
6453;BME280;3259;51.080;13.712;2023-08-07T01:05:39;99129.59;;;24.34;51.11
6453;BME280;3259;51.080;13.712;2023-08-07T01:08:29;99124.72;;;24.31;50.74
6453;BME280;3259;51.080;13.712;2023-08-07T01:11:27;99121.25;;;24.31;51.32
6453;BME280;3259;51.080;13.712;2023-08-07T01:14:24;99125.53;;;24.32;51.24
6453;BME280;3259;51.080;13.712;2023-08-07T01:17:19;99121.41;;;24.36;51.15
6453;BME280;3259;51.080;13.712;2023-08-07T01:20:09;99119.75;;;24.35;51.20
6453;BME280;3259;51.080;13.712;2023-08-07T01:23:00;99114.19;;;24.36;50.91
6453;BME280;3259;51.080;13.712;2023-08-07T01:25:49;99120.56;;;24.35;50.87
6453;BME280;3259;51.080;13.712;2023-08-07T01:28:41;99117.69;;;24.37;51.03
6453;BME280;3259;51.080;13.712;2023-08-07T01:31:33;99116.88;;;24.36;51.17
6453;BME280;3259;51.080;13.712;2023-08-07T01:34:25;99112.56;;;24.35;50.89
6453;BME280;3259;51.080;13.712;2023-08-07T01:37:14;99126.94;;;24.34;50.95
6453;BME280;3259;51.080;13.712;2023-08-07T01:40:06;99127.16;;;24.33;50.68
6453;BME280;3259;51.080;13.712;2023-08-07T01:42:56;99116.94;;;24.30;50.85
6453;BME280;3259;51.080;13.712;2023-08-07T01:45:46;99119.03;;;24.28;51.02
6453;BME280;3259;51.080;13.712;2023-08-07T01:48:35;99124.94;;;24.30;50.97
6453;BME280;3259;51.080;13.712;2023-08-07T01:51:23;99121.09;;;24.26;51.20
6453;BME280;3259;51.080;13.712;2023-08-07T01:54:12;99131.75;;;24.26;50.98
6453;BME280;3259;51.080;13.712;2023-08-07T01:57:03;99130.56;;;24.22;51.22
6453;BME280;3259;51.080;13.712;2023-08-07T01:59:52;99136.34;;;24.19;51.21
6453;BME280;3259;51.080;13.712;2023-08-07T02:02:41;99136.72;;;24.22;51.10
6453;BME280;3259;51.080;13.712;2023-08-07T02:05:31;99136.19;;;24.32;51.11
6453;BME280;3259;51.080;13.712;2023-08-07T02:08:20;99142.44;;;24.26;51.42
6453;BME280;3259;51.080;13.712;2023-08-07T02:11:09;99146.13;;;24.25;51.28
6453;BME280;3259;51.080;13.712;2023-08-07T02:13:59;99135.81;;;24.28;51.37
6453;BME280;3259;51.080;13.712;2023-08-07T02:16:48;99128.06;;;24.27;51.27
6453;BME280;3259;51.080;13.712;2023-08-07T02:19:36;99133.22;;;24.40;51.49
6453;BME280;3259;51.080;13.712;2023-08-07T02:22:25;99132.47;;;24.33;51.50
6453;BME280;3259;51.080;13.712;2023-08-07T02:25:14;99140.78;;;24.25;51.75
6453;BME280;3259;51.080;13.712;2023-08-07T02:28:03;99140.78;;;24.25;51.46
6453;BME280;3259;51.080;13.712;2023-08-07T02:30:53;99145.50;;;24.23;51.62
6453;BME280;3259;51.080;13.712;2023-08-07T02:33:42;99140.41;;;24.21;51.57
6453;BME280;3259;51.080;13.712;2023-08-07T02:36:30;99138.84;;;24.32;51.39
6453;BME280;3259;51.080;13.712;2023-08-07T02:39:19;99139.81;;;24.37;51.16
6453;BME280;3259;51.080;13.712;2023-08-07T02:42:08;99141.06;;;24.35;51.55
6453;BME280;3259;51.080;13.712;2023-08-07T02:44:56;99139.97;;;24.42;51.26
6453;BME280;3259;51.080;13.712;2023-08-07T02:47:47;99136.47;;;24.42;51.09
6453;BME280;3259;51.080;13.712;2023-08-07T02:50:35;99141.00;;;24.41;50.96
6453;BME280;3259;51.080;13.712;2023-08-07T02:53:24;99147.53;;;24.45;51.26
6453;BME280;3259;51.080;13.712;2023-08-07T02:56:13;99142.66;;;24.42;51.04
6453;BME280;3259;51.080;13.712;2023-08-07T02:59:02;99141.44;;;24.38;51.60
6453;BME280;3259;51.080;13.712;2023-08-07T03:01:51;99135.06;;;24.39;51.42
6453;BME280;3259;51.080;13.712;2023-08-07T03:04:41;99138.03;;;24.49;51.22
6453;BME280;3259;51.080;13.712;2023-08-07T03:07:30;99146.28;;;24.48;51.07
6453;BME280;3259;51.080;13.712;2023-08-07T03:10:19;99177.50;;;24.41;51.50
6453;BME280;3259;51.080;13.712;2023-08-07T03:13:09;99179.88;;;24.49;51.18
6453;BME280;3259;51.080;13.712;2023-08-07T03:15:59;99196.22;;;24.52;51.13
6453;BME280;3259;51.080;13.712;2023-08-07T03:18:48;99199.28;;;24.38;51.64
6453;BME280;3259;51.080;13.712;2023-08-07T03:21:38;99202.38;;;24.35;51.26
6453;BME280;3259;51.080;13.712;2023-08-07T03:24:26;99206.38;;;24.26;50.82
6453;BME280;3259;51.080;13.712;2023-08-07T03:27:15;99214.78;;;24.23;50.36
6453;BME280;3259;51.080;13.712;2023-08-07T03:30:05;99218.50;;;24.22;49.97
6453;BME280;3259;51.080;13.712;2023-08-07T03:32:54;99216.53;;;24.35;49.85
6453;BME280;3259;51.080;13.712;2023-08-07T03:35:43;99222.22;;;24.39;49.64
6453;BME280;3259;51.080;13.712;2023-08-07T03:38:33;99229.78;;;24.42;49.90
6453;BME280;3259;51.080;13.712;2023-08-07T03:41:22;99233.63;;;24.46;49.77
6453;BME280;3259;51.080;13.712;2023-08-07T03:44:11;99228.66;;;24.49;49.53
6453;BME280;3259;51.080;13.712;2023-08-07T03:47:00;99239.53;;;24.54;49.39
6453;BME280;3259;51.080;13.712;2023-08-07T03:49:49;99248.34;;;24.55;49.55
6453;BME280;3259;51.080;13.712;2023-08-07T03:52:40;99241.38;;;24.54;49.38
6453;BME280;3259;51.080;13.712;2023-08-07T03:55:30;99239.28;;;24.56;49.71
6453;BME280;3259;51.080;13.712;2023-08-07T03:58:19;99246.63;;;24.60;49.26
6453;BME280;3259;51.080;13.712;2023-08-07T04:01:08;99244.19;;;24.59;49.23
6453;BME280;3259;51.080;13.712;2023-08-07T04:03:57;99244.78;;;24.61;49.52
6453;BME280;3259;51.080;13.712;2023-08-07T04:06:46;99242.94;;;24.61;49.33
6453;BME280;3259;51.080;13.712;2023-08-07T04:09:35;99246.28;;;24.50;49.77
6453;BME280;3259;51.080;13.712;2023-08-07T04:12:25;99256.25;;;24.61;49.74
6453;BME280;3259;51.080;13.712;2023-08-07T04:15:15;99247.72;;;24.71;49.77
6453;BME280;3259;51.080;13.712;2023-08-07T04:18:05;99258.13;;;24.79;49.44
6453;BME280;3259;51.080;13.712;2023-08-07T04:20:55;99260.50;;;24.87;49.63
6453;BME280;3259;51.080;13.712;2023-08-07T04:23:44;99257.00;;;24.86;49.34
6453;BME280;3259;51.080;13.712;2023-08-07T04:26:33;99258.13;;;24.97;49.53
6453;BME280;3259;51.080;13.712;2023-08-07T04:29:23;99253.94;;;25.01;49.35
6453;BME280;3259;51.080;13.712;2023-08-07T04:32:12;99265.66;;;25.00;49.74
6453;BME280;3259;51.080;13.712;2023-08-07T04:35:01;99265.81;;;25.05;49.40
6453;BME280;3259;51.080;13.712;2023-08-07T04:37:50;99266.16;;;25.08;49.33
6453;BME280;3259;51.080;13.712;2023-08-07T04:40:43;99274.38;;;25.07;49.44
6453;BME280;3259;51.080;13.712;2023-08-07T04:43:32;99275.59;;;25.11;49.67
6453;BME280;3259;51.080;13.712;2023-08-07T04:46:23;99273.81;;;25.23;48.72
6453;BME280;3259;51.080;13.712;2023-08-07T04:49:11;99281.97;;;25.28;49.03
6453;BME280;3259;51.080;13.712;2023-08-07T04:52:00;99276.50;;;25.23;49.19
6453;BME280;3259;51.080;13.712;2023-08-07T04:55:09;99280.78;;;25.24;49.14
6453;BME280;3259;51.080;13.712;2023-08-07T04:57:57;99289.53;;;25.13;50.09
6453;BME280;3259;51.080;13.712;2023-08-07T05:00:46;99286.09;;;25.06;50.14
6453;BME280;3259;51.080;13.712;2023-08-07T05:03:37;99286.56;;;25.03;50.10
6453;BME280;3259;51.080;13.712;2023-08-07T05:06:25;99289.81;;;25.05;50.07
6453;BME280;3259;51.080;13.712;2023-08-07T05:09:14;99286.50;;;25.27;49.47
6453;BME280;3259;51.080;13.712;2023-08-07T05:12:04;99297.25;;;25.21;49.20
6453;BME280;3259;51.080;13.712;2023-08-07T05:14:53;99290.47;;;25.36;48.98
6453;BME280;3259;51.080;13.712;2023-08-07T05:17:42;99292.91;;;25.38;48.53
6453;BME280;3259;51.080;13.712;2023-08-07T05:20:33;99298.44;;;25.25;49.46
6453;BME280;3259;51.080;13.712;2023-08-07T05:23:22;99300.50;;;25.23;49.90
6453;BME280;3259;51.080;13.712;2023-08-07T05:26:10;99300.34;;;25.36;49.40
6453;BME280;3259;51.080;13.712;2023-08-07T05:28:59;99303.78;;;25.25;49.60
6453;BME280;3259;51.080;13.712;2023-08-07T05:31:48;99311.66;;;25.20;49.91
6453;BME280;3259;51.080;13.712;2023-08-07T05:34:37;99307.75;;;25.16;49.25
6453;BME280;3259;51.080;13.712;2023-08-07T05:37:27;99317.00;;;25.20;49.03
6453;BME280;3259;51.080;13.712;2023-08-07T05:40:18;99315.28;;;25.19;49.12
6453;BME280;3259;51.080;13.712;2023-08-07T05:43:07;99315.28;;;25.19;48.97
6453;BME280;3259;51.080;13.712;2023-08-07T05:45:58;99311.91;;;25.12;49.29
6453;BME280;3259;51.080;13.712;2023-08-07T05:48:46;99320.88;;;25.17;49.02
6453;BME280;3259;51.080;13.712;2023-08-07T05:51:35;99323.94;;;25.21;48.98
6453;BME280;3259;51.080;13.712;2023-08-07T05:54:25;99326.88;;;25.13;49.20
6453;BME280;3259;51.080;13.712;2023-08-07T05:57:14;99331.84;;;25.09;49.63
6453;BME280;3259;51.080;13.712;2023-08-07T06:00:03;99330.97;;;25.15;49.29
6453;BME280;3259;51.080;13.712;2023-08-07T06:02:52;99337.56;;;25.13;49.12
6453;BME280;3259;51.080;13.712;2023-08-07T06:05:41;99343.47;;;25.15;49.16
6453;BME280;3259;51.080;13.712;2023-08-07T06:08:30;99334.88;;;25.13;48.97
6453;BME280;3259;51.080;13.712;2023-08-07T06:11:20;99341.25;;;25.12;49.00
6453;BME280;3259;51.080;13.712;2023-08-07T06:14:08;99352.66;;;25.19;48.91
6453;BME280;3259;51.080;13.712;2023-08-07T06:16:57;99351.88;;;25.18;49.01
6453;BME280;3259;51.080;13.712;2023-08-07T06:19:48;99365.66;;;25.15;48.89
6453;BME280;3259;51.080;13.712;2023-08-07T06:22:37;99363.31;;;25.25;48.55
6453;BME280;3259;51.080;13.712;2023-08-07T06:25:26;99372.25;;;25.13;48.90
6453;BME280;3259;51.080;13.712;2023-08-07T06:28:16;99376.53;;;25.14;48.89
6453;BME280;3259;51.080;13.712;2023-08-07T06:31:07;99372.69;;;25.10;48.87
6453;BME280;3259;51.080;13.712;2023-08-07T06:33:56;99385.00;;;25.11;48.76
6453;BME280;3259;51.080;13.712;2023-08-07T06:36:46;99387.09;;;25.09;48.87
6453;BME280;3259;51.080;13.712;2023-08-07T06:39:35;99389.13;;;25.07;48.72
6453;BME280;3259;51.080;13.712;2023-08-07T06:42:24;99392.56;;;25.14;48.32
6453;BME280;3259;51.080;13.712;2023-08-07T06:45:14;99395.09;;;25.09;48.57
6453;BME280;3259;51.080;13.712;2023-08-07T06:48:03;99391.59;;;25.08;48.30
6453;BME280;3259;51.080;13.712;2023-08-07T06:50:52;99394.63;;;25.12;48.20
6453;BME280;3259;51.080;13.712;2023-08-07T06:53:40;99399.53;;;25.15;48.72
6453;BME280;3259;51.080;13.712;2023-08-07T06:56:29;99396.72;;;25.10;48.54
6453;BME280;3259;51.080;13.712;2023-08-07T06:59:18;99404.06;;;25.14;48.47
6453;BME280;3259;51.080;13.712;2023-08-07T07:02:08;99404.41;;;25.18;48.24
6453;BME280;3259;51.080;13.712;2023-08-07T07:04:57;99408.53;;;25.20;48.46
6453;BME280;3259;51.080;13.712;2023-08-07T07:07:45;99403.63;;;25.17;48.33
6453;BME280;3259;51.080;13.712;2023-08-07T07:10:34;99410.09;;;25.28;47.59
6453;BME280;3259;51.080;13.712;2023-08-07T07:13:23;99409.38;;;25.21;47.94
6453;BME280;3259;51.080;13.712;2023-08-07T07:16:12;99408.31;;;25.22;47.53
6453;BME280;3259;51.080;13.712;2023-08-07T07:19:02;99410.47;;;25.31;47.48
6453;BME280;3259;51.080;13.712;2023-08-07T07:21:50;99419.22;;;25.20;47.57
6453;BME280;3259;51.080;13.712;2023-08-07T07:24:40;99420.63;;;25.23;47.97
6453;BME280;3259;51.080;13.712;2023-08-07T07:27:29;99414.25;;;25.24;47.60
6453;BME280;3259;51.080;13.712;2023-08-07T07:30:18;99420.94;;;25.33;47.76
6453;BME280;3259;51.080;13.712;2023-08-07T07:33:07;99417.28;;;25.27;47.91
6453;BME280;3259;51.080;13.712;2023-08-07T07:35:57;99422.97;;;25.31;47.47
6453;BME280;3259;51.080;13.712;2023-08-07T07:38:46;99429.06;;;25.38;47.39
6453;BME280;3259;51.080;13.712;2023-08-07T07:41:35;99427.97;;;25.27;47.41
6453;BME280;3259;51.080;13.712;2023-08-07T07:44:24;99440.50;;;25.27;47.28
6453;BME280;3259;51.080;13.712;2023-08-07T07:47:12;99438.06;;;25.25;47.37
6453;BME280;3259;51.080;13.712;2023-08-07T07:50:05;99448.50;;;25.27;47.36
6453;BME280;3259;51.080;13.712;2023-08-07T07:52:56;99447.00;;;25.31;46.95
6453;BME280;3259;51.080;13.712;2023-08-07T07:55:46;99447.00;;;25.31;46.74
6453;BME280;3259;51.080;13.712;2023-08-07T07:58:36;99454.09;;;25.25;47.09
6453;BME280;3259;51.080;13.712;2023-08-07T08:01:24;99456.38;;;25.40;46.88
6453;BME280;3259;51.080;13.712;2023-08-07T08:04:14;99461.78;;;25.33;47.04
6453;BME280;3259;51.080;13.712;2023-08-07T08:07:03;99468.38;;;25.31;46.74
6453;BME280;3259;51.080;13.712;2023-08-07T08:09:54;99468.38;;;25.31;46.65
6453;BME280;3259;51.080;13.712;2023-08-07T08:12:43;99474.41;;;25.26;46.47
6453;BME280;3259;51.080;13.712;2023-08-07T08:15:31;99471.66;;;25.33;46.14
6453;BME280;3259;51.080;13.712;2023-08-07T08:18:20;99467.19;;;25.27;46.61
6453;BME280;3259;51.080;13.712;2023-08-07T08:21:09;99465.41;;;25.39;46.12
6453;BME280;3259;51.080;13.712;2023-08-07T08:23:59;99480.72;;;25.32;46.30
6453;BME280;3259;51.080;13.712;2023-08-07T08:26:49;99479.22;;;25.36;46.12
6453;BME280;3259;51.080;13.712;2023-08-07T08:29:37;99495.06;;;25.31;46.41
6453;BME280;3259;51.080;13.712;2023-08-07T08:32:27;99494.06;;;25.32;46.43
6453;BME280;3259;51.080;13.712;2023-08-07T08:35:16;99492.03;;;25.27;46.70
6453;BME280;3259;51.080;13.712;2023-08-07T08:38:04;99490.16;;;25.28;46.43
6453;BME280;3259;51.080;13.712;2023-08-07T08:40:54;99489.72;;;25.31;46.00
6453;BME280;3259;51.080;13.712;2023-08-07T08:43:45;99492.13;;;25.39;45.79
6453;BME280;3259;51.080;13.712;2023-08-07T08:46:36;99493.44;;;25.30;46.12
6453;BME280;3259;51.080;13.712;2023-08-07T08:49:32;99490.56;;;25.31;45.80
6453;BME280;3259;51.080;13.712;2023-08-07T08:52:21;99497.38;;;25.45;45.58
6453;BME280;3259;51.080;13.712;2023-08-07T08:55:12;99489.91;;;25.36;46.07
6453;BME280;3259;51.080;13.712;2023-08-07T08:58:01;99494.50;;;25.47;45.81
6453;BME280;3259;51.080;13.712;2023-08-07T09:00:52;99493.38;;;25.36;46.07
6453;BME280;3259;51.080;13.712;2023-08-07T09:03:41;99509.84;;;25.33;45.66
6453;BME280;3259;51.080;13.712;2023-08-07T09:06:31;99510.66;;;25.34;45.74
6453;BME280;3259;51.080;13.712;2023-08-07T09:09:21;99513.47;;;25.39;45.45
6453;BME280;3259;51.080;13.712;2023-08-07T09:12:12;99511.25;;;25.36;46.16
6453;BME280;3259;51.080;13.712;2023-08-07T09:15:05;99506.88;;;25.41;45.81
6453;BME280;3259;51.080;13.712;2023-08-07T09:17:57;99520.06;;;25.36;45.75
6453;BME280;3259;51.080;13.712;2023-08-07T09:20:46;99522.06;;;25.41;46.05
6453;BME280;3259;51.080;13.712;2023-08-07T09:23:35;99512.47;;;25.58;45.66
6453;BME280;3259;51.080;13.712;2023-08-07T09:26:24;99508.06;;;25.45;45.95
6453;BME280;3259;51.080;13.712;2023-08-07T09:29:13;99512.97;;;25.48;46.13
6453;BME280;3259;51.080;13.712;2023-08-07T09:32:06;99514.91;;;25.59;45.79
6453;BME280;3259;51.080;13.712;2023-08-07T09:34:57;99522.56;;;25.56;45.46
6453;BME280;3259;51.080;13.712;2023-08-07T09:37:46;99514.63;;;25.49;45.81
6453;BME280;3259;51.080;13.712;2023-08-07T09:40:35;99513.34;;;25.52;45.55
6453;BME280;3259;51.080;13.712;2023-08-07T09:43:24;99515.88;;;25.47;45.61
6453;BME280;3259;51.080;13.712;2023-08-07T09:46:13;99517.94;;;25.45;45.31
6453;BME280;3259;51.080;13.712;2023-08-07T09:49:01;99509.94;;;25.45;45.29
6453;BME280;3259;51.080;13.712;2023-08-07T09:51:52;99526.88;;;25.57;44.64
6453;BME280;3259;51.080;13.712;2023-08-07T09:54:41;99519.13;;;25.49;44.75
6453;BME280;3259;51.080;13.712;2023-08-07T09:57:30;99525.34;;;25.43;44.82
6453;BME280;3259;51.080;13.712;2023-08-07T10:00:20;99518.53;;;25.47;45.27
6453;BME280;3259;51.080;13.712;2023-08-07T10:03:08;99516.25;;;25.50;44.86
6453;BME280;3259;51.080;13.712;2023-08-07T10:05:57;99513.72;;;25.55;45.03
6453;BME280;3259;51.080;13.712;2023-08-07T10:08:49;99520.75;;;25.50;45.17
6453;BME280;3259;51.080;13.712;2023-08-07T10:11:39;99522.41;;;25.51;44.96
6453;BME280;3259;51.080;13.712;2023-08-07T10:14:28;99530.69;;;25.43;44.90
6453;BME280;3259;51.080;13.712;2023-08-07T10:17:18;99530.25;;;25.46;45.00
6453;BME280;3259;51.080;13.712;2023-08-07T10:20:08;99529.22;;;25.47;44.58
6453;BME280;3259;51.080;13.712;2023-08-07T10:23:00;99526.88;;;25.57;44.55
6453;BME280;3259;51.080;13.712;2023-08-07T10:25:51;99536.41;;;25.46;44.49
6453;BME280;3259;51.080;13.712;2023-08-07T10:28:41;99550.25;;;25.61;44.55
6453;BME280;3259;51.080;13.712;2023-08-07T10:31:31;99548.50;;;25.49;44.77
6453;BME280;3259;51.080;13.712;2023-08-07T10:34:22;99533.97;;;25.45;45.47
6453;BME280;3259;51.080;13.712;2023-08-07T10:37:38;99544.72;;;25.38;46.13
6453;BME280;3259;51.080;13.712;2023-08-07T10:40:27;99532.94;;;25.46;46.33
6453;BME280;3259;51.080;13.712;2023-08-07T10:43:18;99536.78;;;25.50;46.06
6453;BME280;3259;51.080;13.712;2023-08-07T10:46:10;99529.66;;;25.62;45.69
6453;BME280;3259;51.080;13.712;2023-08-07T10:48:58;99534.31;;;25.48;46.20
6453;BME280;3259;51.080;13.712;2023-08-07T10:51:50;99541.25;;;25.56;46.12
6453;BME280;3259;51.080;13.712;2023-08-07T10:54:39;99542.50;;;25.53;46.28
6453;BME280;3259;51.080;13.712;2023-08-07T10:57:31;99542.50;;;25.53;46.78
6453;BME280;3259;51.080;13.712;2023-08-07T11:00:25;99547.09;;;25.46;47.19
6453;BME280;3259;51.080;13.712;2023-08-07T11:03:20;99545.84;;;25.49;47.01
6453;BME280;3259;51.080;13.712;2023-08-07T11:06:14;99543.25;;;25.60;46.92
6453;BME280;3259;51.080;13.712;2023-08-07T11:09:05;99542.44;;;25.60;47.07
6453;BME280;3259;51.080;13.712;2023-08-07T11:11:54;99537.22;;;25.47;47.46
6453;BME280;3259;51.080;13.712;2023-08-07T11:14:42;99538.88;;;25.48;47.17
6453;BME280;3259;51.080;13.712;2023-08-07T11:17:32;99534.69;;;25.52;46.53
6453;BME280;3259;51.080;13.712;2023-08-07T11:20:21;99533.53;;;25.48;46.56
6453;BME280;3259;51.080;13.712;2023-08-07T11:23:11;99534.69;;;25.52;45.95
6453;BME280;3259;51.080;13.712;2023-08-07T11:26:00;99536.56;;;25.51;45.84
6453;BME280;3259;51.080;13.712;2023-08-07T11:28:50;99540.13;;;25.45;46.23
6453;BME280;3259;51.080;13.712;2023-08-07T11:31:39;99556.38;;;25.44;46.41
6453;BME280;3259;51.080;13.712;2023-08-07T11:34:29;99562.91;;;25.48;46.06
6453;BME280;3259;51.080;13.712;2023-08-07T11:37:18;99566.34;;;25.55;46.44
6453;BME280;3259;51.080;13.712;2023-08-07T11:40:08;99557.69;;;25.53;46.51
6453;BME280;3259;51.080;13.712;2023-08-07T11:42:58;99575.06;;;25.44;47.18
6453;BME280;3259;51.080;13.712;2023-08-07T11:45:47;99577.50;;;25.45;47.42
6453;BME280;3259;51.080;13.712;2023-08-07T11:48:37;99580.69;;;25.54;47.03
6453;BME280;3259;51.080;13.712;2023-08-07T11:51:28;99572.09;;;25.52;47.29
6453;BME280;3259;51.080;13.712;2023-08-07T11:54:17;99582.63;;;25.47;47.63
6453;BME280;3259;51.080;13.712;2023-08-07T11:57:15;99586.47;;;25.51;47.55
6453;BME280;3259;51.080;13.712;2023-08-07T12:00:06;99583.22;;;25.49;47.66
6453;BME280;3259;51.080;13.712;2023-08-07T12:03:00;99581.91;;;25.58;47.69
6453;BME280;3259;51.080;13.712;2023-08-07T12:05:49;99585.25;;;25.53;47.74
6453;BME280;3259;51.080;13.712;2023-08-07T12:08:40;99577.00;;;25.55;47.64
6453;BME280;3259;51.080;13.712;2023-08-07T12:11:29;99584.72;;;25.63;47.60
6453;BME280;3259;51.080;13.712;2023-08-07T12:14:18;99583.53;;;25.59;47.63
6453;BME280;3259;51.080;13.712;2023-08-07T12:17:08;99575.09;;;25.62;48.02
6453;BME280;3259;51.080;13.712;2023-08-07T12:19:58;99574.63;;;25.65;48.09
6453;BME280;3259;51.080;13.712;2023-08-07T12:22:46;99571.53;;;25.68;48.78
6453;BME280;3259;51.080;13.712;2023-08-07T12:25:37;99589.03;;;25.64;48.56
6453;BME280;3259;51.080;13.712;2023-08-07T12:28:26;99570.34;;;25.64;48.73
6453;BME280;3259;51.080;13.712;2023-08-07T12:31:15;99575.59;;;25.70;48.44
6453;BME280;3259;51.080;13.712;2023-08-07T12:34:04;99574.22;;;25.68;48.04
6453;BME280;3259;51.080;13.712;2023-08-07T12:36:56;99579.75;;;25.66;47.97
6453;BME280;3259;51.080;13.712;2023-08-07T12:39:45;99567.16;;;25.73;47.74
6453;BME280;3259;51.080;13.712;2023-08-07T12:42:38;99579.56;;;25.68;47.17
6453;BME280;3259;51.080;13.712;2023-08-07T12:45:27;99575.66;;;25.64;47.41
6453;BME280;3259;51.080;13.712;2023-08-07T12:48:18;99577.59;;;25.57;47.57
6453;BME280;3259;51.080;13.712;2023-08-07T12:51:07;99576.13;;;25.61;47.53
6453;BME280;3259;51.080;13.712;2023-08-07T12:53:56;99574.03;;;25.63;47.50
6453;BME280;3259;51.080;13.712;2023-08-07T12:56:45;99572.63;;;25.60;47.61
6453;BME280;3259;51.080;13.712;2023-08-07T12:59:35;99582.50;;;25.60;47.54
6453;BME280;3259;51.080;13.712;2023-08-07T13:02:23;99609.34;;;25.65;47.48
6453;BME280;3259;51.080;13.712;2023-08-07T13:05:13;99614.34;;;25.61;47.88
6453;BME280;3259;51.080;13.712;2023-08-07T13:08:03;99603.59;;;25.68;47.64
6453;BME280;3259;51.080;13.712;2023-08-07T13:10:55;99601.97;;;25.67;47.91
6453;BME280;3259;51.080;13.712;2023-08-07T13:13:44;99608.50;;;25.71;47.64
6453;BME280;3259;51.080;13.712;2023-08-07T13:16:34;99597.47;;;25.85;47.06
6453;BME280;3259;51.080;13.712;2023-08-07T13:19:23;99596.03;;;25.83;47.43
6453;BME280;3259;51.080;13.712;2023-08-07T13:22:11;99585.34;;;25.83;47.95
6453;BME280;3259;51.080;13.712;2023-08-07T13:25:00;99600.50;;;25.88;47.41
6453;BME280;3259;51.080;13.712;2023-08-07T13:27:50;99593.81;;;25.80;47.53
6453;BME280;3259;51.080;13.712;2023-08-07T13:30:39;99601.84;;;25.80;47.86
6453;BME280;3259;51.080;13.712;2023-08-07T13:33:29;99605.16;;;25.75;47.96
6453;BME280;3259;51.080;13.712;2023-08-07T13:36:18;99609.59;;;25.81;47.57
6453;BME280;3259;51.080;13.712;2023-08-07T13:39:07;99614.56;;;25.77;47.38
6453;BME280;3259;51.080;13.712;2023-08-07T13:41:56;99621.56;;;25.79;47.34
6453;BME280;3259;51.080;13.712;2023-08-07T13:44:45;99618.28;;;25.77;47.18
6453;BME280;3259;51.080;13.712;2023-08-07T13:47:34;99628.56;;;25.80;46.91
6453;BME280;3259;51.080;13.712;2023-08-07T13:50:24;99625.50;;;25.76;47.08
6453;BME280;3259;51.080;13.712;2023-08-07T13:53:13;99630.25;;;25.74;47.13
6453;BME280;3259;51.080;13.712;2023-08-07T13:56:02;99642.31;;;25.77;46.48
6453;BME280;3259;51.080;13.712;2023-08-07T13:58:51;99644.59;;;25.80;46.69
6453;BME280;3259;51.080;13.712;2023-08-07T14:01:41;99661.47;;;25.74;46.79
6453;BME280;3259;51.080;13.712;2023-08-07T14:04:30;99675.00;;;25.79;47.30
6453;BME280;3259;51.080;13.712;2023-08-07T14:07:20;99699.66;;;25.81;47.43
6453;BME280;3259;51.080;13.712;2023-08-07T14:10:09;99733.00;;;25.72;47.59
6453;BME280;3259;51.080;13.712;2023-08-07T14:12:58;99730.13;;;25.73;47.93
6453;BME280;3259;51.080;13.712;2023-08-07T14:15:47;99733.88;;;25.66;47.79
6453;BME280;3259;51.080;13.712;2023-08-07T14:18:36;99734.19;;;25.76;47.70
6453;BME280;3259;51.080;13.712;2023-08-07T14:21:25;99736.13;;;25.69;47.96
6453;BME280;3259;51.080;13.712;2023-08-07T14:24:15;99734.69;;;25.66;48.07
6453;BME280;3259;51.080;13.712;2023-08-07T14:27:04;99726.03;;;25.71;47.76
6453;BME280;3259;51.080;13.712;2023-08-07T14:29:53;99725.16;;;25.77;47.55
6453;BME280;3259;51.080;13.712;2023-08-07T14:32:42;99729.41;;;25.84;47.13
6453;BME280;3259;51.080;13.712;2023-08-07T14:35:31;99729.63;;;25.83;47.58
6453;BME280;3259;51.080;13.712;2023-08-07T14:38:19;99736.47;;;25.79;47.58
6453;BME280;3259;51.080;13.712;2023-08-07T14:41:09;99723.88;;;25.86;47.55
6453;BME280;3259;51.080;13.712;2023-08-07T14:43:58;99722.41;;;25.89;47.89
6453;BME280;3259;51.080;13.712;2023-08-07T14:46:47;99727.47;;;25.97;47.59
6453;BME280;3259;51.080;13.712;2023-08-07T14:49:36;99733.16;;;26.07;47.36
6453;BME280;3259;51.080;13.712;2023-08-07T14:52:24;99734.06;;;26.19;47.83
6453;BME280;3259;51.080;13.712;2023-08-07T14:55:13;99735.22;;;26.05;47.90
6453;BME280;3259;51.080;13.712;2023-08-07T14:58:03;99726.97;;;26.07;47.48
6453;BME280;3259;51.080;13.712;2023-08-07T15:00:53;99728.94;;;26.18;47.25
6453;BME280;3259;51.080;13.712;2023-08-07T15:03:43;99721.28;;;26.03;48.14
6453;BME280;3259;51.080;13.712;2023-08-07T15:06:32;99725.94;;;26.08;48.25
6453;BME280;3259;51.080;13.712;2023-08-07T15:09:20;99734.19;;;26.06;48.28